<?xml version="1.0" encoding="UTF-8" standalone="no" ?>
<gpx xmlns="http://www.topografix.com/GPX/1/1" xmlns:xsi="http://www.w3.org/2001/XMLSchema-instance" xsi:schemaLocation="http://www.topografix.com/GPX/1/1 http://www.topografix.com/GPX/1/1/gpx.xsd" version="1.1" creator="VisuGPX - https://www.visugpx.com">
  <metadata>
    <name>Les Mées/Vinon-sur-Verdon via st-Jurs et en passant au dessus de Moustier</name>
    <desc><![CDATA[Jolie promenade à travers plateaux, valons et villages du pays du Verdon . 
J'ai suprimé deux passages étroits et difficiles pour les châssis long et j'ai rajouter une portion qui descend prêt du lac d'Esparons .]]></desc>
  </metadata>
  <wpt lat="43.90967" lon="6.23456">
    <ele>1325.8</ele>
    <name><![CDATA[Barrière DFCI qui est ouverte à la belle saison]]></name>
  </wpt>
  <trk>
    <name><![CDATA[Les Mées/Vinon-sur-Verdon]]></name>
    <desc><![CDATA[Jolie promenade à travers plateaux, valons et villages du pays du Verdon . 
J'ai suprimé deux passages étroits et difficiles pour les châssis long et j'ai rajouter une portion qui descend prêt du lac d'Esparons .]]></desc>
    <extensions>
      <line xmlns="http://www.topografix.com/GPX/gpx_style/0/2">
        <color>0000FF</color>
        <width>4</width>
      </line>
    </extensions>
    <trkseg>
      <trkpt lat="44.02251" lon="5.96707">
        <ele>454.857</ele>
        <time>2022-05-09T07:33:03Z</time>
        <extensions>
          <visugpx:TrkExtension xmlns:visugpx="https://www.visugpx.com/editgpx/">
            <visugpx:node>3</visugpx:node>
            </visugpx:TrkExtension>
        </extensions>
      </trkpt>
      <trkpt lat="44.02435" lon="5.9688">
        <ele>449.3</ele>
        <time>2022-05-09T07:33:13Z</time>
      </trkpt>
      <trkpt lat="44.02453" lon="5.9714">
        <ele>439.32</ele>
        <time>2022-05-09T07:33:23Z</time>
      </trkpt>
      <trkpt lat="44.02511" lon="5.96984">
        <ele>427.008</ele>
        <time>2022-05-09T07:33:33Z</time>
      </trkpt>
      <trkpt lat="44.02579" lon="5.96958">
        <ele>427.392</ele>
        <time>2022-05-09T07:33:43Z</time>
      </trkpt>
      <trkpt lat="44.02721" lon="5.97163">
        <ele>407.984</ele>
        <time>2022-05-09T07:33:53Z</time>
      </trkpt>
      <trkpt lat="44.02579" lon="5.96958">
        <ele>427.35</ele>
        <time>2022-05-09T07:34:03Z</time>
      </trkpt>
      <trkpt lat="44.02511" lon="5.96984">
        <ele>427.064</ele>
        <time>2022-05-09T07:34:13Z</time>
      </trkpt>
      <trkpt lat="44.02453" lon="5.9714">
        <ele>439.331</ele>
        <time>2022-05-09T07:34:23Z</time>
      </trkpt>
      <trkpt lat="44.02446" lon="5.96914">
        <ele>450.926</ele>
        <time>2022-05-09T07:34:33Z</time>
      </trkpt>
      <trkpt lat="44.02354" lon="5.96754">
        <ele>452.236</ele>
        <time>2022-05-09T07:34:38Z</time>
      </trkpt>
      <trkpt lat="44.01852" lon="5.96509">
        <ele>458.794</ele>
        <time>2022-05-09T07:34:53Z</time>
      </trkpt>
      <trkpt lat="44.01608" lon="5.96559">
        <ele>474.792</ele>
        <time>2022-05-09T07:35:13Z</time>
      </trkpt>
      <trkpt lat="44.01324" lon="5.96964">
        <ele>496.873</ele>
        <time>2022-05-09T07:35:23Z</time>
      </trkpt>
      <trkpt lat="44.0125" lon="5.97422">
        <ele>521.22</ele>
        <time>2022-05-09T07:35:53Z</time>
      </trkpt>
      <trkpt lat="44.01326" lon="5.97393">
        <ele>525.708</ele>
        <time>2022-05-09T07:36:03Z</time>
      </trkpt>
      <trkpt lat="44.01329" lon="5.97571">
        <ele>538.426</ele>
        <time>2022-05-09T07:36:08Z</time>
      </trkpt>
      <trkpt lat="44.01293" lon="5.97502">
        <ele>545.398</ele>
        <time>2022-05-09T07:36:23Z</time>
      </trkpt>
      <trkpt lat="44.01028" lon="5.97746">
        <ele>594.364</ele>
        <time>2022-05-09T07:36:28Z</time>
      </trkpt>
      <trkpt lat="44.01173" lon="5.98049">
        <ele>626.428</ele>
        <time>2022-05-09T07:36:48Z</time>
      </trkpt>
      <trkpt lat="44.01153" lon="5.98233">
        <ele>639.765</ele>
        <time>2022-05-09T07:36:53Z</time>
      </trkpt>
      <trkpt lat="44.01059" lon="5.9837">
        <ele>655.52</ele>
        <time>2022-05-09T07:36:58Z</time>
      </trkpt>
      <trkpt lat="44.01242" lon="5.98347">
        <ele>682.88</ele>
        <time>2022-05-09T07:37:03Z</time>
      </trkpt>
      <trkpt lat="44.01284" lon="5.9847">
        <ele>693.778</ele>
        <time>2022-05-09T07:37:08Z</time>
      </trkpt>
      <trkpt lat="44.01202" lon="5.98507">
        <ele>710.214</ele>
        <time>2022-05-09T07:37:23Z</time>
      </trkpt>
      <trkpt lat="44.01594" lon="5.99039">
        <ele>756.754</ele>
        <time>2022-05-09T07:37:48Z</time>
      </trkpt>
      <trkpt lat="44.01558" lon="5.99217">
        <ele>755.809</ele>
        <time>2022-05-09T07:37:53Z</time>
      </trkpt>
      <trkpt lat="44.01609" lon="5.99313">
        <ele>754.208</ele>
        <time>2022-05-09T07:37:58Z</time>
      </trkpt>
      <trkpt lat="44.01423" lon="5.99636">
        <ele>752.178</ele>
        <time>2022-05-09T07:38:18Z</time>
      </trkpt>
      <trkpt lat="44.01354" lon="5.99897">
        <ele>752.83</ele>
        <time>2022-05-09T07:38:28Z</time>
      </trkpt>
      <trkpt lat="44.01158" lon="6.00001">
        <ele>768.466</ele>
        <time>2022-05-09T07:38:43Z</time>
      </trkpt>
      <trkpt lat="44.0118" lon="6.00065">
        <ele>774.87</ele>
        <time>2022-05-09T07:38:48Z</time>
      </trkpt>
      <trkpt lat="44.00714" lon="5.99965">
        <ele>766.157</ele>
        <time>2022-05-09T07:39:03Z</time>
      </trkpt>
      <trkpt lat="44.00584" lon="5.99736">
        <ele>757.612</ele>
        <time>2022-05-09T07:39:18Z</time>
      </trkpt>
      <trkpt lat="44.00276" lon="5.99704">
        <ele>751.662</ele>
        <time>2022-05-09T07:39:28Z</time>
      </trkpt>
      <trkpt lat="43.99461" lon="5.99363">
        <ele>741.56</ele>
        <time>2022-05-09T07:39:48Z</time>
      </trkpt>
      <trkpt lat="43.99219" lon="5.99139">
        <ele>740.174</ele>
        <time>2022-05-09T07:39:58Z</time>
      </trkpt>
      <trkpt lat="43.98999" lon="5.98711">
        <ele>738.556</ele>
        <time>2022-05-09T07:40:08Z</time>
      </trkpt>
      <trkpt lat="43.98714" lon="5.98607">
        <ele>734.221</ele>
        <time>2022-05-09T07:40:13Z</time>
      </trkpt>
      <trkpt lat="43.98431" lon="5.98611">
        <ele>727.408</ele>
        <time>2022-05-09T07:40:18Z</time>
      </trkpt>
      <trkpt lat="43.9831" lon="5.98373">
        <ele>723.434</ele>
        <time>2022-05-09T07:40:23Z</time>
      </trkpt>
      <trkpt lat="43.97536" lon="5.98055">
        <ele>700.116</ele>
        <time>2022-05-09T07:40:43Z</time>
      </trkpt>
      <trkpt lat="43.97375" lon="5.98055">
        <ele>695.492</ele>
        <time>2022-05-09T07:40:48Z</time>
      </trkpt>
      <trkpt lat="43.97178" lon="5.97903">
        <ele>688.866</ele>
        <time>2022-05-09T07:40:58Z</time>
      </trkpt>
      <trkpt lat="43.96723" lon="5.97741">
        <ele>678.213</ele>
        <time>2022-05-09T07:41:08Z</time>
      </trkpt>
      <trkpt lat="43.96446" lon="5.97546">
        <ele>668.058</ele>
        <time>2022-05-09T07:41:23Z</time>
      </trkpt>
      <trkpt lat="43.96259" lon="5.9762">
        <ele>672.418</ele>
        <time>2022-05-09T07:41:28Z</time>
      </trkpt>
      <trkpt lat="43.961" lon="5.97507">
        <ele>661.586</ele>
        <time>2022-05-09T07:41:38Z</time>
      </trkpt>
      <trkpt lat="43.95336" lon="5.97686">
        <ele>601.887</ele>
        <time>2022-05-09T07:42:18Z</time>
      </trkpt>
      <trkpt lat="43.95222" lon="5.9755">
        <ele>589.142</ele>
        <time>2022-05-09T07:42:33Z</time>
      </trkpt>
      <trkpt lat="43.947" lon="5.97633">
        <ele>549.026</ele>
        <time>2022-05-09T07:42:58Z</time>
      </trkpt>
      <trkpt lat="43.94505" lon="5.97782">
        <ele>528.808</ele>
        <time>2022-05-09T07:43:08Z</time>
      </trkpt>
      <trkpt lat="43.94199" lon="5.97822">
        <ele>511.965</ele>
        <time>2022-05-09T07:43:18Z</time>
      </trkpt>
      <trkpt lat="43.93676" lon="5.98043">
        <ele>464.147</ele>
        <time>2022-05-09T07:43:53Z</time>
      </trkpt>
      <trkpt lat="43.93817" lon="5.98381">
        <ele>468.633</ele>
        <time>2022-05-09T07:43:58Z</time>
      </trkpt>
      <trkpt lat="43.94174" lon="5.98887">
        <ele>479.987</ele>
        <time>2022-05-09T07:44:18Z</time>
      </trkpt>
      <trkpt lat="43.94229" lon="6.0011">
        <ele>506.994</ele>
        <time>2022-05-09T07:44:38Z</time>
      </trkpt>
      <trkpt lat="43.94345" lon="6.01179">
        <ele>520.829</ele>
        <time>2022-05-09T07:44:43Z</time>
      </trkpt>
      <trkpt lat="43.94453" lon="6.01501">
        <ele>536.789</ele>
        <time>2022-05-09T07:44:53Z</time>
      </trkpt>
      <trkpt lat="43.94503" lon="6.01957">
        <ele>537.797</ele>
        <time>2022-05-09T07:45:08Z</time>
      </trkpt>
      <trkpt lat="43.94997" lon="6.03658">
        <ele>560.191</ele>
        <time>2022-05-09T07:45:53Z</time>
      </trkpt>
      <trkpt lat="43.9486" lon="6.03686">
        <ele>555.081</ele>
        <time>2022-05-09T07:46:18Z</time>
      </trkpt>
      <trkpt lat="43.94834" lon="6.03824">
        <ele>556.419</ele>
        <time>2022-05-09T07:46:23Z</time>
      </trkpt>
      <trkpt lat="43.94465" lon="6.04176">
        <ele>576.608</ele>
        <time>2022-05-09T07:46:33Z</time>
      </trkpt>
      <trkpt lat="43.94066" lon="6.05064">
        <ele>604.686</ele>
        <time>2022-05-09T07:47:13Z</time>
      </trkpt>
      <trkpt lat="43.93889" lon="6.05862">
        <ele>643.588</ele>
        <time>2022-05-09T07:47:43Z</time>
      </trkpt>
      <trkpt lat="43.93925" lon="6.0589">
        <ele>643.514</ele>
        <time>2022-05-09T07:47:48Z</time>
      </trkpt>
      <trkpt lat="43.9384" lon="6.05981">
        <ele>643.558</ele>
        <time>2022-05-09T07:47:58Z</time>
      </trkpt>
      <trkpt lat="43.93881" lon="6.06437">
        <ele>643.595</ele>
        <time>2022-05-09T07:48:03Z</time>
      </trkpt>
      <trkpt lat="43.93779" lon="6.06538">
        <ele>679.17</ele>
        <time>2022-05-09T07:48:18Z</time>
      </trkpt>
      <trkpt lat="43.93863" lon="6.07188">
        <ele>683.04</ele>
        <time>2022-05-09T07:48:33Z</time>
      </trkpt>
      <trkpt lat="43.93824" lon="6.07177">
        <ele>682.988</ele>
        <time>2022-05-09T07:48:43Z</time>
      </trkpt>
      <trkpt lat="43.94063" lon="6.07259">
        <ele>694.312</ele>
        <time>2022-05-09T07:48:58Z</time>
      </trkpt>
      <trkpt lat="43.94" lon="6.07872">
        <ele>725.332</ele>
        <time>2022-05-09T07:49:18Z</time>
      </trkpt>
      <trkpt lat="43.94487" lon="6.09392">
        <ele>755.605</ele>
        <time>2022-05-09T07:49:33Z</time>
      </trkpt>
      <trkpt lat="43.94556" lon="6.10077">
        <ele>768.308</ele>
        <time>2022-05-09T07:49:38Z</time>
      </trkpt>
      <trkpt lat="43.94293" lon="6.10294">
        <ele>766.228</ele>
        <time>2022-05-09T07:49:53Z</time>
      </trkpt>
      <trkpt lat="43.9446" lon="6.10623">
        <ele>766.24</ele>
        <time>2022-05-09T07:50:03Z</time>
      </trkpt>
      <trkpt lat="43.93929" lon="6.10643">
        <ele>705.476</ele>
        <time>2022-05-09T07:50:23Z</time>
      </trkpt>
      <trkpt lat="43.93758" lon="6.10767">
        <ele>708.14</ele>
        <time>2022-05-09T07:50:33Z</time>
      </trkpt>
      <trkpt lat="43.93646" lon="6.11107">
        <ele>706.667</ele>
        <time>2022-05-09T07:50:48Z</time>
      </trkpt>
      <trkpt lat="43.93535" lon="6.11183">
        <ele>701.672</ele>
        <time>2022-05-09T07:50:58Z</time>
      </trkpt>
      <trkpt lat="43.93542" lon="6.11383">
        <ele>697.192</ele>
        <time>2022-05-09T07:51:03Z</time>
      </trkpt>
      <trkpt lat="43.93453" lon="6.1137">
        <ele>695.64</ele>
        <time>2022-05-09T07:51:08Z</time>
      </trkpt>
      <trkpt lat="43.93347" lon="6.11487">
        <ele>691.281</ele>
        <time>2022-05-09T07:51:18Z</time>
      </trkpt>
      <trkpt lat="43.93282" lon="6.11401">
        <ele>692.661</ele>
        <time>2022-05-09T07:51:28Z</time>
      </trkpt>
      <trkpt lat="43.93047" lon="6.1157">
        <ele>660.417</ele>
        <time>2022-05-09T07:51:43Z</time>
      </trkpt>
      <trkpt lat="43.92764" lon="6.11647">
        <ele>621.508</ele>
        <time>2022-05-09T07:51:58Z</time>
      </trkpt>
      <trkpt lat="43.92654" lon="6.1175">
        <ele>618.535</ele>
        <time>2022-05-09T07:52:08Z</time>
      </trkpt>
      <trkpt lat="43.92646" lon="6.11936">
        <ele>612.427</ele>
        <time>2022-05-09T07:52:18Z</time>
      </trkpt>
      <trkpt lat="43.92758" lon="6.11814">
        <ele>601.153</ele>
        <time>2022-05-09T07:52:28Z</time>
      </trkpt>
      <trkpt lat="43.92785" lon="6.1188">
        <ele>596.077</ele>
        <time>2022-05-09T07:52:33Z</time>
      </trkpt>
      <trkpt lat="43.92646" lon="6.12052">
        <ele>574.424</ele>
        <time>2022-05-09T07:52:53Z</time>
      </trkpt>
      <trkpt lat="43.92878" lon="6.11993">
        <ele>557.839</ele>
        <time>2022-05-09T07:53:18Z</time>
      </trkpt>
      <trkpt lat="43.92839" lon="6.12089">
        <ele>547.319</ele>
        <time>2022-05-09T07:53:23Z</time>
      </trkpt>
      <trkpt lat="43.92778" lon="6.12069">
        <ele>561.887</ele>
        <time>2022-05-09T07:53:33Z</time>
      </trkpt>
      <trkpt lat="43.92614" lon="6.12227">
        <ele>528.559</ele>
        <time>2022-05-09T07:53:43Z</time>
      </trkpt>
      <trkpt lat="43.92867" lon="6.12244">
        <ele>512.603</ele>
        <time>2022-05-09T07:54:13Z</time>
      </trkpt>
      <trkpt lat="43.92646" lon="6.12366">
        <ele>503.223</ele>
        <time>2022-05-09T07:54:23Z</time>
      </trkpt>
      <trkpt lat="43.9252" lon="6.12247">
        <ele>490.808</ele>
        <time>2022-05-09T07:54:33Z</time>
      </trkpt>
      <trkpt lat="43.92512" lon="6.1259">
        <ele>482.932</ele>
        <time>2022-05-09T07:54:38Z</time>
      </trkpt>
      <trkpt lat="43.9206" lon="6.13415">
        <ele>486.884</ele>
        <time>2022-05-09T07:54:43Z</time>
      </trkpt>
      <trkpt lat="43.91511" lon="6.12787">
        <ele>481.56</ele>
        <time>2022-05-09T07:55:03Z</time>
      </trkpt>
      <trkpt lat="43.91067" lon="6.1298">
        <ele>505.514</ele>
        <time>2022-05-09T07:55:13Z</time>
      </trkpt>
      <trkpt lat="43.90335" lon="6.12932">
        <ele>604.111</ele>
        <time>2022-05-09T07:55:43Z</time>
      </trkpt>
      <trkpt lat="43.90281" lon="6.13027">
        <ele>604.126</ele>
        <time>2022-05-09T07:55:48Z</time>
      </trkpt>
      <trkpt lat="43.89635" lon="6.1285">
        <ele>731.166</ele>
        <time>2022-05-09T07:56:28Z</time>
        <extensions>
          <visugpx:TrkExtension xmlns:visugpx="https://www.visugpx.com/editgpx/">
            <visugpx:node>1</visugpx:node>
            </visugpx:TrkExtension>
        </extensions>
      </trkpt>
      <trkpt lat="43.89625" lon="6.12853">
        <ele>732</ele>
        <time>2022-05-09T07:56:29.071Z</time>
      </trkpt>
      <trkpt lat="43.89627" lon="6.12868">
        <ele>731.7</ele>
        <time>2022-05-09T07:56:30.221Z</time>
      </trkpt>
      <trkpt lat="43.89628" lon="6.12876">
        <ele>731.6</ele>
        <time>2022-05-09T07:56:30.833Z</time>
      </trkpt>
      <trkpt lat="43.89625" lon="6.12875">
        <ele>732</ele>
        <time>2022-05-09T07:56:31.156Z</time>
      </trkpt>
      <trkpt lat="43.89619" lon="6.12875">
        <ele>732.9</ele>
        <time>2022-05-09T07:56:31.784Z</time>
      </trkpt>
      <trkpt lat="43.89616" lon="6.12876">
        <ele>733.3</ele>
        <time>2022-05-09T07:56:32.107Z</time>
      </trkpt>
      <trkpt lat="43.89617" lon="6.12885">
        <ele>733.2</ele>
        <time>2022-05-09T07:56:32.794Z</time>
      </trkpt>
      <trkpt lat="43.89625" lon="6.12904">
        <ele>732</ele>
        <time>2022-05-09T07:56:34.454Z</time>
      </trkpt>
      <trkpt lat="43.89626" lon="6.12913">
        <ele>731.9</ele>
        <time>2022-05-09T07:56:35.141Z</time>
      </trkpt>
      <trkpt lat="43.89615" lon="6.1298">
        <ele>731.6</ele>
        <time>2022-05-09T07:56:40.325Z</time>
      </trkpt>
      <trkpt lat="43.89574" lon="6.13038">
        <ele>733.2</ele>
        <time>2022-05-09T07:56:46.454Z</time>
      </trkpt>
      <trkpt lat="43.89566" lon="6.13046">
        <ele>733.7</ele>
        <time>2022-05-09T07:56:47.486Z</time>
      </trkpt>
      <trkpt lat="43.89542" lon="6.13058">
        <ele>735.4</ele>
        <time>2022-05-09T07:56:50.157Z</time>
      </trkpt>
      <trkpt lat="43.89537" lon="6.13071">
        <ele>735.5</ele>
        <time>2022-05-09T07:56:51.269Z</time>
      </trkpt>
      <trkpt lat="43.89539" lon="6.13082">
        <ele>735.2</ele>
        <time>2022-05-09T07:56:52.125Z</time>
      </trkpt>
      <trkpt lat="43.89536" lon="6.13076">
        <ele>735.5</ele>
        <time>2022-05-09T07:56:52.676Z</time>
        <extensions>
          <visugpx:TrkExtension xmlns:visugpx="https://www.visugpx.com/editgpx/">
            <visugpx:node>2</visugpx:node>
            </visugpx:TrkExtension>
        </extensions>
      </trkpt>
      <trkpt lat="43.89533" lon="6.13077">
        <ele>739.734</ele>
        <time>2022-05-09T07:56:53Z</time>
      </trkpt>
      <trkpt lat="43.89539" lon="6.13348">
        <ele>739.755</ele>
        <time>2022-05-09T07:57:08Z</time>
      </trkpt>
      <trkpt lat="43.90084" lon="6.14315">
        <ele>741.01</ele>
        <time>2022-05-09T07:57:33Z</time>
      </trkpt>
      <trkpt lat="43.90234" lon="6.14907">
        <ele>746.008</ele>
        <time>2022-05-09T07:57:53Z</time>
      </trkpt>
      <trkpt lat="43.90456" lon="6.15138">
        <ele>749.97</ele>
        <time>2022-05-09T07:57:58Z</time>
      </trkpt>
      <trkpt lat="43.90781" lon="6.15811">
        <ele>764.612</ele>
        <time>2022-05-09T07:58:13Z</time>
      </trkpt>
      <trkpt lat="43.90279" lon="6.1621">
        <ele>776.218</ele>
        <time>2022-05-09T07:58:28Z</time>
      </trkpt>
      <trkpt lat="43.90253" lon="6.16405">
        <ele>776.382</ele>
        <time>2022-05-09T07:58:33Z</time>
      </trkpt>
      <trkpt lat="43.89976" lon="6.164">
        <ele>781.199</ele>
        <time>2022-05-09T07:58:48Z</time>
      </trkpt>
      <trkpt lat="43.89805" lon="6.16813">
        <ele>790.874</ele>
        <time>2022-05-09T07:58:53Z</time>
      </trkpt>
      <trkpt lat="43.89693" lon="6.1692">
        <ele>795.134</ele>
        <time>2022-05-09T07:59:03Z</time>
      </trkpt>
      <trkpt lat="43.89589" lon="6.1689">
        <ele>789.992</ele>
        <time>2022-05-09T07:59:13Z</time>
      </trkpt>
      <trkpt lat="43.89936" lon="6.18397">
        <ele>839.771</ele>
        <time>2022-05-09T07:59:43Z</time>
      </trkpt>
      <trkpt lat="43.90119" lon="6.18883">
        <ele>839.641</ele>
        <time>2022-05-09T07:59:53Z</time>
      </trkpt>
      <trkpt lat="43.90097" lon="6.19104">
        <ele>839.015</ele>
        <time>2022-05-09T07:59:58Z</time>
      </trkpt>
      <trkpt lat="43.89955" lon="6.19179">
        <ele>837.508</ele>
        <time>2022-05-09T08:00:03Z</time>
      </trkpt>
      <trkpt lat="43.8985" lon="6.19364">
        <ele>836.334</ele>
        <time>2022-05-09T08:00:13Z</time>
      </trkpt>
      <trkpt lat="43.89803" lon="6.19699">
        <ele>859.096</ele>
        <time>2022-05-09T08:00:23Z</time>
      </trkpt>
      <trkpt lat="43.8993" lon="6.19881">
        <ele>876.982</ele>
        <time>2022-05-09T08:00:38Z</time>
      </trkpt>
      <trkpt lat="43.899" lon="6.20164">
        <ele>911.296</ele>
        <time>2022-05-09T08:00:48Z</time>
      </trkpt>
      <trkpt lat="43.89725" lon="6.20388">
        <ele>941.853</ele>
        <time>2022-05-09T08:01:08Z</time>
      </trkpt>
      <trkpt lat="43.89832" lon="6.20429">
        <ele>954.718</ele>
        <time>2022-05-09T08:01:18Z</time>
      </trkpt>
      <trkpt lat="43.89898" lon="6.20647">
        <ele>971.878</ele>
        <time>2022-05-09T08:01:33Z</time>
      </trkpt>
      <trkpt lat="43.89953" lon="6.20667">
        <ele>976.216</ele>
        <time>2022-05-09T08:01:38Z</time>
      </trkpt>
      <trkpt lat="43.90063" lon="6.20964">
        <ele>996.464</ele>
        <time>2022-05-09T08:02:03Z</time>
      </trkpt>
      <trkpt lat="43.89944" lon="6.20998">
        <ele>1005.406</ele>
        <time>2022-05-09T08:02:13Z</time>
      </trkpt>
      <trkpt lat="43.89972" lon="6.2119">
        <ele>1018.816</ele>
        <time>2022-05-09T08:02:33Z</time>
      </trkpt>
      <trkpt lat="43.89865" lon="6.21361">
        <ele>1039.608</ele>
        <time>2022-05-09T08:02:48Z</time>
      </trkpt>
      <trkpt lat="43.89859" lon="6.21624">
        <ele>1057.133</ele>
        <time>2022-05-09T08:03:08Z</time>
      </trkpt>
      <trkpt lat="43.89999" lon="6.21641">
        <ele>1059.925</ele>
        <time>2022-05-09T08:03:18Z</time>
      </trkpt>
      <trkpt lat="43.90151" lon="6.21809">
        <ele>1068.611</ele>
        <time>2022-05-09T08:03:28Z</time>
      </trkpt>
      <trkpt lat="43.90165" lon="6.21974">
        <ele>1083.055</ele>
        <time>2022-05-09T08:03:38Z</time>
      </trkpt>
      <trkpt lat="43.9027" lon="6.22121">
        <ele>1100.682</ele>
        <time>2022-05-09T08:03:48Z</time>
      </trkpt>
      <trkpt lat="43.90178" lon="6.22105">
        <ele>1107.577</ele>
        <time>2022-05-09T08:04:03Z</time>
      </trkpt>
      <trkpt lat="43.90334" lon="6.22292">
        <ele>1135.487</ele>
        <time>2022-05-09T08:04:23Z</time>
      </trkpt>
      <trkpt lat="43.90348" lon="6.22464">
        <ele>1150.645</ele>
        <time>2022-05-09T08:04:33Z</time>
      </trkpt>
      <trkpt lat="43.90726" lon="6.22673">
        <ele>1164.619</ele>
        <time>2022-05-09T08:04:53Z</time>
      </trkpt>
      <trkpt lat="43.91031" lon="6.2297">
        <ele>1179.609</ele>
        <time>2022-05-09T08:05:08Z</time>
      </trkpt>
      <trkpt lat="43.9119" lon="6.22829">
        <ele>1197.219</ele>
        <time>2022-05-09T08:05:28Z</time>
      </trkpt>
      <trkpt lat="43.91399" lon="6.22767">
        <ele>1217.608</ele>
        <time>2022-05-09T08:05:43Z</time>
      </trkpt>
      <trkpt lat="43.91437" lon="6.22975">
        <ele>1227.878</ele>
        <time>2022-05-09T08:05:53Z</time>
      </trkpt>
      <trkpt lat="43.91696" lon="6.23029">
        <ele>1242.49</ele>
        <time>2022-05-09T08:06:13Z</time>
      </trkpt>
      <trkpt lat="43.919" lon="6.22946">
        <ele>1253.456</ele>
        <time>2022-05-09T08:06:23Z</time>
      </trkpt>
      <trkpt lat="43.91711" lon="6.2311">
        <ele>1267.57</ele>
        <time>2022-05-09T08:06:33Z</time>
      </trkpt>
      <trkpt lat="43.91231" lon="6.23217">
        <ele>1300.127</ele>
        <time>2022-05-09T08:06:48Z</time>
      </trkpt>
      <trkpt lat="43.91173" lon="6.23321">
        <ele>1303.982</ele>
        <time>2022-05-09T08:06:53Z</time>
      </trkpt>
      <trkpt lat="43.90961" lon="6.2341">
        <ele>1319.852</ele>
        <time>2022-05-09T08:07:03Z</time>
      </trkpt>
      <trkpt lat="43.90954" lon="6.23596">
        <ele>1325.38</ele>
        <time>2022-05-09T08:07:08Z</time>
      </trkpt>
      <trkpt lat="43.91006" lon="6.23677">
        <ele>1323.567</ele>
        <time>2022-05-09T08:07:13Z</time>
      </trkpt>
      <trkpt lat="43.91044" lon="6.24334">
        <ele>1312.581</ele>
        <time>2022-05-09T08:07:43Z</time>
      </trkpt>
      <trkpt lat="43.90937" lon="6.2452">
        <ele>1308.419</ele>
        <time>2022-05-09T08:07:58Z</time>
      </trkpt>
      <trkpt lat="43.90969" lon="6.24775">
        <ele>1303.508</ele>
        <time>2022-05-09T08:08:08Z</time>
      </trkpt>
      <trkpt lat="43.90864" lon="6.25002">
        <ele>1304.733</ele>
        <time>2022-05-09T08:08:18Z</time>
      </trkpt>
      <trkpt lat="43.90743" lon="6.25074">
        <ele>1306.755</ele>
        <time>2022-05-09T08:08:28Z</time>
      </trkpt>
      <trkpt lat="43.90591" lon="6.25718">
        <ele>1329.531</ele>
        <time>2022-05-09T08:08:48Z</time>
      </trkpt>
      <trkpt lat="43.90581" lon="6.25987">
        <ele>1338.235</ele>
        <time>2022-05-09T08:08:58Z</time>
      </trkpt>
      <trkpt lat="43.904" lon="6.26255">
        <ele>1350.212</ele>
        <time>2022-05-09T08:09:13Z</time>
      </trkpt>
      <trkpt lat="43.90323" lon="6.26269">
        <ele>1350.317</ele>
        <time>2022-05-09T08:09:18Z</time>
      </trkpt>
      <trkpt lat="43.90348" lon="6.26121">
        <ele>1348.457</ele>
        <time>2022-05-09T08:09:33Z</time>
      </trkpt>
      <trkpt lat="43.89893" lon="6.26464">
        <ele>1316.075</ele>
        <time>2022-05-09T08:09:53Z</time>
      </trkpt>
      <trkpt lat="43.89585" lon="6.26517">
        <ele>1313.237</ele>
        <time>2022-05-09T08:09:58Z</time>
      </trkpt>
      <trkpt lat="43.88708" lon="6.27245">
        <ele>1240.649</ele>
        <time>2022-05-09T08:11:03Z</time>
      </trkpt>
      <trkpt lat="43.88384" lon="6.27613">
        <ele>1225.013</ele>
        <time>2022-05-09T08:11:18Z</time>
      </trkpt>
      <trkpt lat="43.88262" lon="6.27579">
        <ele>1217.608</ele>
        <time>2022-05-09T08:11:33Z</time>
      </trkpt>
      <trkpt lat="43.88075" lon="6.27772">
        <ele>1210.34</ele>
        <time>2022-05-09T08:11:48Z</time>
      </trkpt>
      <trkpt lat="43.87972" lon="6.27697">
        <ele>1212.512</ele>
        <time>2022-05-09T08:12:03Z</time>
      </trkpt>
      <trkpt lat="43.87899" lon="6.27886">
        <ele>1213.778</ele>
        <time>2022-05-09T08:12:08Z</time>
      </trkpt>
      <trkpt lat="43.87555" lon="6.28114">
        <ele>1212.752</ele>
        <time>2022-05-09T08:12:33Z</time>
      </trkpt>
      <trkpt lat="43.87444" lon="6.28114">
        <ele>1212.249</ele>
        <time>2022-05-09T08:12:43Z</time>
      </trkpt>
      <trkpt lat="43.87148" lon="6.28386">
        <ele>1208.554</ele>
        <time>2022-05-09T08:12:53Z</time>
      </trkpt>
      <trkpt lat="43.86972" lon="6.28443">
        <ele>1204.184</ele>
        <time>2022-05-09T08:13:03Z</time>
      </trkpt>
      <trkpt lat="43.86908" lon="6.28575">
        <ele>1202.182</ele>
        <time>2022-05-09T08:13:08Z</time>
      </trkpt>
      <trkpt lat="43.86742" lon="6.28639">
        <ele>1203.684</ele>
        <time>2022-05-09T08:13:13Z</time>
      </trkpt>
      <trkpt lat="43.8637" lon="6.29018">
        <ele>1192.907</ele>
        <time>2022-05-09T08:13:38Z</time>
      </trkpt>
      <trkpt lat="43.86322" lon="6.28967">
        <ele>1196.517</ele>
        <time>2022-05-09T08:13:43Z</time>
      </trkpt>
      <trkpt lat="43.86159" lon="6.29127">
        <ele>1216.008</ele>
        <time>2022-05-09T08:13:48Z</time>
      </trkpt>
      <trkpt lat="43.86101" lon="6.29081">
        <ele>1221.975</ele>
        <time>2022-05-09T08:13:58Z</time>
      </trkpt>
      <trkpt lat="43.86055" lon="6.29191">
        <ele>1227.457</ele>
        <time>2022-05-09T08:14:08Z</time>
      </trkpt>
      <trkpt lat="43.85892" lon="6.2914">
        <ele>1238.393</ele>
        <time>2022-05-09T08:14:28Z</time>
      </trkpt>
      <trkpt lat="43.85903" lon="6.29268">
        <ele>1246.017</ele>
        <time>2022-05-09T08:14:38Z</time>
      </trkpt>
      <trkpt lat="43.85811" lon="6.29284">
        <ele>1256.084</ele>
        <time>2022-05-09T08:14:48Z</time>
      </trkpt>
      <trkpt lat="43.85555" lon="6.29605">
        <ele>1276.069</ele>
        <time>2022-05-09T08:15:08Z</time>
      </trkpt>
      <trkpt lat="43.85399" lon="6.29649">
        <ele>1277.339</ele>
        <time>2022-05-09T08:15:13Z</time>
      </trkpt>
      <trkpt lat="43.85211" lon="6.29829">
        <ele>1287.357</ele>
        <time>2022-05-09T08:15:23Z</time>
      </trkpt>
      <trkpt lat="43.85193" lon="6.29967">
        <ele>1289.847</ele>
        <time>2022-05-09T08:15:33Z</time>
      </trkpt>
      <trkpt lat="43.84989" lon="6.30052">
        <ele>1293.329</ele>
        <time>2022-05-09T08:15:48Z</time>
      </trkpt>
      <trkpt lat="43.8488" lon="6.30331">
        <ele>1286.821</ele>
        <time>2022-05-09T08:15:53Z</time>
      </trkpt>
      <trkpt lat="43.84618" lon="6.30692">
        <ele>1268.908</ele>
        <time>2022-05-09T08:16:13Z</time>
      </trkpt>
      <trkpt lat="43.848" lon="6.30625">
        <ele>1261.021</ele>
        <time>2022-05-09T08:16:33Z</time>
      </trkpt>
      <trkpt lat="43.84976" lon="6.30936">
        <ele>1243.433</ele>
        <time>2022-05-09T08:17:03Z</time>
      </trkpt>
      <trkpt lat="43.84827" lon="6.30814">
        <ele>1233.589</ele>
        <time>2022-05-09T08:17:13Z</time>
      </trkpt>
      <trkpt lat="43.85008" lon="6.31086">
        <ele>1216.963</ele>
        <time>2022-05-09T08:17:28Z</time>
      </trkpt>
      <trkpt lat="43.84931" lon="6.31137">
        <ele>1215.81</ele>
        <time>2022-05-09T08:17:38Z</time>
      </trkpt>
      <trkpt lat="43.84833" lon="6.31461">
        <ele>1209.935</ele>
        <time>2022-05-09T08:17:53Z</time>
      </trkpt>
      <trkpt lat="43.84725" lon="6.31558">
        <ele>1208.075</ele>
        <time>2022-05-09T08:17:58Z</time>
      </trkpt>
      <trkpt lat="43.84758" lon="6.31724">
        <ele>1201.433</ele>
        <time>2022-05-09T08:18:03Z</time>
      </trkpt>
      <trkpt lat="43.84627" lon="6.31658">
        <ele>1204.168</ele>
        <time>2022-05-09T08:18:18Z</time>
      </trkpt>
      <trkpt lat="43.8406" lon="6.31879">
        <ele>1243.742</ele>
        <time>2022-05-09T08:19:03Z</time>
      </trkpt>
      <trkpt lat="43.84006" lon="6.32548">
        <ele>1238.526</ele>
        <time>2022-05-09T08:19:38Z</time>
      </trkpt>
      <trkpt lat="43.83797" lon="6.32626">
        <ele>1231.408</ele>
        <time>2022-05-09T08:19:58Z</time>
      </trkpt>
      <trkpt lat="43.83722" lon="6.32788">
        <ele>1225.683</ele>
        <time>2022-05-09T08:20:08Z</time>
      </trkpt>
      <trkpt lat="43.8363" lon="6.32753">
        <ele>1228.715</ele>
        <time>2022-05-09T08:20:23Z</time>
      </trkpt>
      <trkpt lat="43.83538" lon="6.3285">
        <ele>1231.691</ele>
        <time>2022-05-09T08:20:33Z</time>
      </trkpt>
      <trkpt lat="43.83327" lon="6.32588">
        <ele>1213.955</ele>
        <time>2022-05-09T08:20:58Z</time>
      </trkpt>
      <trkpt lat="43.83421" lon="6.32431">
        <ele>1205.732</ele>
        <time>2022-05-09T08:21:08Z</time>
      </trkpt>
      <trkpt lat="43.83322" lon="6.32371">
        <ele>1198.947</ele>
        <time>2022-05-09T08:21:18Z</time>
      </trkpt>
      <trkpt lat="43.83007" lon="6.32622">
        <ele>1185.157</ele>
        <time>2022-05-09T08:21:38Z</time>
      </trkpt>
      <trkpt lat="43.82874" lon="6.32618">
        <ele>1177.875</ele>
        <time>2022-05-09T08:21:53Z</time>
      </trkpt>
      <trkpt lat="43.82662" lon="6.33062">
        <ele>1163.553</ele>
        <time>2022-05-09T08:22:08Z</time>
      </trkpt>
      <trkpt lat="43.82534" lon="6.33093">
        <ele>1158.404</ele>
        <time>2022-05-09T08:22:13Z</time>
      </trkpt>
      <trkpt lat="43.8251" lon="6.33214">
        <ele>1152.114</ele>
        <time>2022-05-09T08:22:18Z</time>
      </trkpt>
      <trkpt lat="43.82391" lon="6.33255">
        <ele>1147.608</ele>
        <time>2022-05-09T08:22:23Z</time>
      </trkpt>
      <trkpt lat="43.82244" lon="6.33569">
        <ele>1131.532</ele>
        <time>2022-05-09T08:22:38Z</time>
      </trkpt>
      <trkpt lat="43.82184" lon="6.33908">
        <ele>1115.884</ele>
        <time>2022-05-09T08:22:48Z</time>
      </trkpt>
      <trkpt lat="43.81899" lon="6.34084">
        <ele>1095.69</ele>
        <time>2022-05-09T08:23:13Z</time>
      </trkpt>
      <trkpt lat="43.8179" lon="6.34791">
        <ele>1060.514</ele>
        <time>2022-05-09T08:23:48Z</time>
      </trkpt>
      <trkpt lat="43.81683" lon="6.34482">
        <ele>1034.181</ele>
        <time>2022-05-09T08:23:58Z</time>
      </trkpt>
      <trkpt lat="43.81663" lon="6.34626">
        <ele>1021.766</ele>
        <time>2022-05-09T08:24:03Z</time>
      </trkpt>
      <trkpt lat="43.81609" lon="6.34441">
        <ele>999.746</ele>
        <time>2022-05-09T08:24:18Z</time>
      </trkpt>
      <trkpt lat="43.81463" lon="6.34582">
        <ele>968.044</ele>
        <time>2022-05-09T08:24:28Z</time>
      </trkpt>
      <trkpt lat="43.81486" lon="6.34431">
        <ele>946.667</ele>
        <time>2022-05-09T08:24:38Z</time>
      </trkpt>
      <trkpt lat="43.81445" lon="6.34442">
        <ele>940.281</ele>
        <time>2022-05-09T08:24:43Z</time>
      </trkpt>
      <trkpt lat="43.8152" lon="6.34242">
        <ele>927.519</ele>
        <time>2022-05-09T08:25:13Z</time>
      </trkpt>
      <trkpt lat="43.81368" lon="6.34356">
        <ele>946.008</ele>
        <time>2022-05-09T08:25:18Z</time>
      </trkpt>
      <trkpt lat="43.81117" lon="6.34723">
        <ele>959.393</ele>
        <time>2022-05-09T08:25:28Z</time>
      </trkpt>
      <trkpt lat="43.80818" lon="6.3464">
        <ele>983.035</ele>
        <time>2022-05-09T08:25:38Z</time>
      </trkpt>
      <trkpt lat="43.80769" lon="6.34469">
        <ele>993.911</ele>
        <time>2022-05-09T08:25:53Z</time>
      </trkpt>
      <trkpt lat="43.80391" lon="6.34365">
        <ele>1012.445</ele>
        <time>2022-05-09T08:26:23Z</time>
      </trkpt>
      <trkpt lat="43.80677" lon="6.3352">
        <ele>1009.862</ele>
        <time>2022-05-09T08:26:48Z</time>
      </trkpt>
      <trkpt lat="43.80656" lon="6.3309">
        <ele>1004.237</ele>
        <time>2022-05-09T08:26:53Z</time>
      </trkpt>
      <trkpt lat="43.80564" lon="6.32957">
        <ele>992.877</ele>
        <time>2022-05-09T08:27:03Z</time>
      </trkpt>
      <trkpt lat="43.80502" lon="6.31853">
        <ele>956.225</ele>
        <time>2022-05-09T08:27:13Z</time>
      </trkpt>
      <trkpt lat="43.80653" lon="6.30733">
        <ele>927.614</ele>
        <time>2022-05-09T08:27:43Z</time>
      </trkpt>
      <trkpt lat="43.80743" lon="6.30621">
        <ele>927.954</ele>
        <time>2022-05-09T08:27:48Z</time>
      </trkpt>
      <trkpt lat="43.80768" lon="6.30042">
        <ele>917.609</ele>
        <time>2022-05-09T08:28:08Z</time>
      </trkpt>
      <trkpt lat="43.80718" lon="6.29895">
        <ele>914.508</ele>
        <time>2022-05-09T08:28:13Z</time>
      </trkpt>
      <trkpt lat="43.80829" lon="6.29599">
        <ele>903.648</ele>
        <time>2022-05-09T08:28:33Z</time>
      </trkpt>
      <trkpt lat="43.8096" lon="6.29565">
        <ele>900.53</ele>
        <time>2022-05-09T08:28:43Z</time>
      </trkpt>
      <trkpt lat="43.81161" lon="6.29372">
        <ele>897.476</ele>
        <time>2022-05-09T08:28:53Z</time>
      </trkpt>
      <trkpt lat="43.81212" lon="6.29113">
        <ele>891.72</ele>
        <time>2022-05-09T08:29:03Z</time>
      </trkpt>
      <trkpt lat="43.81419" lon="6.2889">
        <ele>887.817</ele>
        <time>2022-05-09T08:29:13Z</time>
      </trkpt>
      <trkpt lat="43.81517" lon="6.28493">
        <ele>885.792</ele>
        <time>2022-05-09T08:29:18Z</time>
      </trkpt>
      <trkpt lat="43.81709" lon="6.28081">
        <ele>886.662</ele>
        <time>2022-05-09T08:29:28Z</time>
      </trkpt>
      <trkpt lat="43.81791" lon="6.27714">
        <ele>875.87</ele>
        <time>2022-05-09T08:29:38Z</time>
      </trkpt>
      <trkpt lat="43.8229" lon="6.27166">
        <ele>861.428</ele>
        <time>2022-05-09T08:30:03Z</time>
      </trkpt>
      <trkpt lat="43.82459" lon="6.27128">
        <ele>856.189</ele>
        <time>2022-05-09T08:30:13Z</time>
      </trkpt>
      <trkpt lat="43.8258" lon="6.26914">
        <ele>856.217</ele>
        <time>2022-05-09T08:30:18Z</time>
      </trkpt>
      <trkpt lat="43.82805" lon="6.26806">
        <ele>874.108</ele>
        <time>2022-05-09T08:30:43Z</time>
      </trkpt>
      <trkpt lat="43.82854" lon="6.26566">
        <ele>887.179</ele>
        <time>2022-05-09T08:30:53Z</time>
      </trkpt>
      <trkpt lat="43.83934" lon="6.25719">
        <ele>914.591</ele>
        <time>2022-05-09T08:31:13Z</time>
      </trkpt>
      <trkpt lat="43.84394" lon="6.2516">
        <ele>932.777</ele>
        <time>2022-05-09T08:31:38Z</time>
      </trkpt>
      <trkpt lat="43.84468" lon="6.25206">
        <ele>925.291</ele>
        <time>2022-05-09T08:31:53Z</time>
      </trkpt>
      <trkpt lat="43.8454" lon="6.249">
        <ele>939.218</ele>
        <time>2022-05-09T08:32:03Z</time>
      </trkpt>
      <trkpt lat="43.85411" lon="6.24421">
        <ele>954.333</ele>
        <time>2022-05-09T08:32:28Z</time>
      </trkpt>
      <trkpt lat="43.85668" lon="6.24448">
        <ele>956.853</ele>
        <time>2022-05-09T08:32:43Z</time>
      </trkpt>
      <trkpt lat="43.85742" lon="6.24188">
        <ele>959.221</ele>
        <time>2022-05-09T08:32:53Z</time>
      </trkpt>
      <trkpt lat="43.859" lon="6.2408">
        <ele>969.251</ele>
        <time>2022-05-09T08:33:03Z</time>
      </trkpt>
      <trkpt lat="43.86215" lon="6.24097">
        <ele>973.701</ele>
        <time>2022-05-09T08:33:13Z</time>
      </trkpt>
      <trkpt lat="43.86298" lon="6.24004">
        <ele>982.211</ele>
        <time>2022-05-09T08:33:23Z</time>
      </trkpt>
      <trkpt lat="43.86655" lon="6.23934">
        <ele>969.808</ele>
        <time>2022-05-09T08:33:43Z</time>
      </trkpt>
      <trkpt lat="43.87043" lon="6.24156">
        <ele>1000.762</ele>
        <time>2022-05-09T08:34:08Z</time>
      </trkpt>
      <trkpt lat="43.87231" lon="6.23986">
        <ele>1027.044</ele>
        <time>2022-05-09T08:34:18Z</time>
      </trkpt>
      <trkpt lat="43.8729" lon="6.23692">
        <ele>1026.74</ele>
        <time>2022-05-09T08:34:33Z</time>
      </trkpt>
      <trkpt lat="43.87237" lon="6.23501">
        <ele>1028.694</ele>
        <time>2022-05-09T08:34:43Z</time>
      </trkpt>
      <trkpt lat="43.8702" lon="6.23383">
        <ele>1029.461</ele>
        <time>2022-05-09T08:35:03Z</time>
      </trkpt>
      <trkpt lat="43.87388" lon="6.2323">
        <ele>1057.036</ele>
        <time>2022-05-09T08:35:18Z</time>
      </trkpt>
      <trkpt lat="43.87667" lon="6.22828">
        <ele>1059.776</ele>
        <time>2022-05-09T08:35:38Z</time>
      </trkpt>
      <trkpt lat="43.87602" lon="6.22572">
        <ele>1063.464</ele>
        <time>2022-05-09T08:35:43Z</time>
      </trkpt>
      <trkpt lat="43.87666" lon="6.22001">
        <ele>1066.259</ele>
        <time>2022-05-09T08:35:53Z</time>
      </trkpt>
      <trkpt lat="43.87484" lon="6.21601">
        <ele>1053.703</ele>
        <time>2022-05-09T08:35:58Z</time>
      </trkpt>
      <trkpt lat="43.87348" lon="6.2091">
        <ele>984.023</ele>
        <time>2022-05-09T08:36:13Z</time>
      </trkpt>
      <trkpt lat="43.8744" lon="6.20752">
        <ele>972.308</ele>
        <time>2022-05-09T08:36:23Z</time>
      </trkpt>
      <trkpt lat="43.87609" lon="6.20702">
        <ele>954.122</ele>
        <time>2022-05-09T08:36:43Z</time>
      </trkpt>
      <trkpt lat="43.87433" lon="6.20357">
        <ele>926.864</ele>
        <time>2022-05-09T08:36:58Z</time>
      </trkpt>
      <trkpt lat="43.87467" lon="6.202">
        <ele>915.37</ele>
        <time>2022-05-09T08:37:03Z</time>
      </trkpt>
      <trkpt lat="43.8742" lon="6.2005">
        <ele>904.374</ele>
        <time>2022-05-09T08:37:08Z</time>
      </trkpt>
      <trkpt lat="43.87317" lon="6.20186">
        <ele>890.691</ele>
        <time>2022-05-09T08:37:23Z</time>
      </trkpt>
      <trkpt lat="43.87191" lon="6.19974">
        <ele>879.346</ele>
        <time>2022-05-09T08:37:33Z</time>
      </trkpt>
      <trkpt lat="43.87268" lon="6.19802">
        <ele>873.126</ele>
        <time>2022-05-09T08:37:43Z</time>
      </trkpt>
      <trkpt lat="43.8727" lon="6.19531">
        <ele>859.094</ele>
        <time>2022-05-09T08:37:48Z</time>
      </trkpt>
      <trkpt lat="43.87017" lon="6.19099">
        <ele>832.448</ele>
        <time>2022-05-09T08:38:03Z</time>
      </trkpt>
      <trkpt lat="43.86397" lon="6.18654">
        <ele>792.561</ele>
        <time>2022-05-09T08:38:28Z</time>
      </trkpt>
      <trkpt lat="43.86342" lon="6.18546">
        <ele>783.717</ele>
        <time>2022-05-09T08:38:33Z</time>
      </trkpt>
      <trkpt lat="43.86232" lon="6.18526">
        <ele>772.708</ele>
        <time>2022-05-09T08:38:43Z</time>
      </trkpt>
      <trkpt lat="43.8632" lon="6.18681">
        <ele>765.041</ele>
        <time>2022-05-09T08:38:58Z</time>
      </trkpt>
      <trkpt lat="43.86119" lon="6.18731">
        <ele>749.053</ele>
        <time>2022-05-09T08:39:08Z</time>
      </trkpt>
      <trkpt lat="43.85961" lon="6.18883">
        <ele>741.789</ele>
        <time>2022-05-09T08:39:13Z</time>
      </trkpt>
      <trkpt lat="43.85608" lon="6.19034">
        <ele>725.083</ele>
        <time>2022-05-09T08:39:23Z</time>
      </trkpt>
      <trkpt lat="43.85502" lon="6.19183">
        <ele>719.63</ele>
        <time>2022-05-09T08:39:33Z</time>
      </trkpt>
      <trkpt lat="43.85056" lon="6.18147">
        <ele>701.565</ele>
        <time>2022-05-09T08:40:08Z</time>
      </trkpt>
      <trkpt lat="43.84978" lon="6.18156">
        <ele>710.165</ele>
        <time>2022-05-09T08:40:18Z</time>
      </trkpt>
      <trkpt lat="43.84925" lon="6.17935">
        <ele>729.673</ele>
        <time>2022-05-09T08:40:38Z</time>
      </trkpt>
      <trkpt lat="43.84568" lon="6.18431">
        <ele>753.434</ele>
        <time>2022-05-09T08:41:13Z</time>
      </trkpt>
      <trkpt lat="43.84431" lon="6.18371">
        <ele>756.755</ele>
        <time>2022-05-09T08:41:23Z</time>
      </trkpt>
      <trkpt lat="43.84371" lon="6.18593">
        <ele>761.81</ele>
        <time>2022-05-09T08:41:28Z</time>
      </trkpt>
      <trkpt lat="43.84077" lon="6.18631">
        <ele>759.508</ele>
        <time>2022-05-09T08:41:33Z</time>
      </trkpt>
      <trkpt lat="43.84043" lon="6.1901">
        <ele>767.96</ele>
        <time>2022-05-09T08:41:38Z</time>
      </trkpt>
      <trkpt lat="43.84116" lon="6.19255">
        <ele>769.612</ele>
        <time>2022-05-09T08:41:48Z</time>
      </trkpt>
      <trkpt lat="43.83984" lon="6.19374">
        <ele>776.278</ele>
        <time>2022-05-09T08:41:58Z</time>
      </trkpt>
      <trkpt lat="43.83867" lon="6.19363">
        <ele>774.872</ele>
        <time>2022-05-09T08:42:08Z</time>
      </trkpt>
      <trkpt lat="43.83407" lon="6.16659">
        <ele>706.949</ele>
        <time>2022-05-09T08:42:33Z</time>
      </trkpt>
      <trkpt lat="43.83422" lon="6.1517">
        <ele>656.154</ele>
        <time>2022-05-09T08:42:53Z</time>
      </trkpt>
      <trkpt lat="43.83287" lon="6.14707">
        <ele>656.154</ele>
        <time>2022-05-09T08:43:03Z</time>
      </trkpt>
      <trkpt lat="43.83291" lon="6.14119">
        <ele>607.282</ele>
        <time>2022-05-09T08:43:28Z</time>
      </trkpt>
      <trkpt lat="43.83185" lon="6.14182">
        <ele>605.725</ele>
        <time>2022-05-09T08:43:48Z</time>
      </trkpt>
      <trkpt lat="43.82726" lon="6.13612">
        <ele>599.226</ele>
        <time>2022-05-09T08:44:08Z</time>
      </trkpt>
      <trkpt lat="43.82689" lon="6.12909">
        <ele>585.208</ele>
        <time>2022-05-09T08:44:28Z</time>
      </trkpt>
      <trkpt lat="43.82989" lon="6.1291">
        <ele>595.808</ele>
        <time>2022-05-09T08:44:38Z</time>
      </trkpt>
      <trkpt lat="43.82994" lon="6.12757">
        <ele>606.279</ele>
        <time>2022-05-09T08:44:43Z</time>
      </trkpt>
      <trkpt lat="43.83318" lon="6.12174">
        <ele>663.141</ele>
        <time>2022-05-09T08:45:08Z</time>
      </trkpt>
      <trkpt lat="43.82963" lon="6.1181">
        <ele>659.617</ele>
        <time>2022-05-09T08:45:13Z</time>
      </trkpt>
      <trkpt lat="43.82708" lon="6.11196">
        <ele>652.891</ele>
        <time>2022-05-09T08:45:33Z</time>
      </trkpt>
      <trkpt lat="43.82509" lon="6.109">
        <ele>651.078</ele>
        <time>2022-05-09T08:45:38Z</time>
      </trkpt>
      <trkpt lat="43.82289" lon="6.10064">
        <ele>636.323</ele>
        <time>2022-05-09T08:46:03Z</time>
      </trkpt>
      <trkpt lat="43.82213" lon="6.09958">
        <ele>624.963</ele>
        <time>2022-05-09T08:46:13Z</time>
      </trkpt>
      <trkpt lat="43.82184" lon="6.09538">
        <ele>590.951</ele>
        <time>2022-05-09T08:46:28Z</time>
      </trkpt>
      <trkpt lat="43.82096" lon="6.0934">
        <ele>570.042</ele>
        <time>2022-05-09T08:46:33Z</time>
      </trkpt>
      <trkpt lat="43.82146" lon="6.09368">
        <ele>561.822</ele>
        <time>2022-05-09T08:46:38Z</time>
      </trkpt>
      <trkpt lat="43.81998" lon="6.0919">
        <ele>542.114</ele>
        <time>2022-05-09T08:46:48Z</time>
      </trkpt>
      <trkpt lat="43.8209" lon="6.09212">
        <ele>538.608</ele>
        <time>2022-05-09T08:46:53Z</time>
      </trkpt>
      <trkpt lat="43.81857" lon="6.09055">
        <ele>525.241</ele>
        <time>2022-05-09T08:47:08Z</time>
      </trkpt>
      <trkpt lat="43.81568" lon="6.09005">
        <ele>523.543</ele>
        <time>2022-05-09T08:47:18Z</time>
      </trkpt>
      <trkpt lat="43.81488" lon="6.08386">
        <ele>515.559</ele>
        <time>2022-05-09T08:47:38Z</time>
      </trkpt>
      <trkpt lat="43.81317" lon="6.07981">
        <ele>511.563</ele>
        <time>2022-05-09T08:47:43Z</time>
      </trkpt>
      <trkpt lat="43.81215" lon="6.07377">
        <ele>512.49</ele>
        <time>2022-05-09T08:47:53Z</time>
      </trkpt>
      <trkpt lat="43.80894" lon="6.06671">
        <ele>496.245</ele>
        <time>2022-05-09T08:48:13Z</time>
      </trkpt>
      <trkpt lat="43.80643" lon="6.05525">
        <ele>490.545</ele>
        <time>2022-05-09T08:48:33Z</time>
      </trkpt>
      <trkpt lat="43.79796" lon="6.04404">
        <ele>464.963</ele>
        <time>2022-05-09T08:48:53Z</time>
      </trkpt>
      <trkpt lat="43.79674" lon="6.03983">
        <ele>458.889</ele>
        <time>2022-05-09T08:49:08Z</time>
      </trkpt>
      <trkpt lat="43.79418" lon="6.03499">
        <ele>460.206</ele>
        <time>2022-05-09T08:49:18Z</time>
      </trkpt>
      <trkpt lat="43.78861" lon="6.02756">
        <ele>447.726</ele>
        <time>2022-05-09T08:49:48Z</time>
      </trkpt>
      <trkpt lat="43.78446" lon="6.0177">
        <ele>442.308</ele>
        <time>2022-05-09T08:50:03Z</time>
      </trkpt>
      <trkpt lat="43.78284" lon="6.01036">
        <ele>436.385</ele>
        <time>2022-05-09T08:50:13Z</time>
      </trkpt>
      <trkpt lat="43.78177" lon="6.01012">
        <ele>428.187</ele>
        <time>2022-05-09T08:50:28Z</time>
      </trkpt>
      <trkpt lat="43.78263" lon="6.00484">
        <ele>425.393</ele>
        <time>2022-05-09T08:50:43Z</time>
      </trkpt>
      <trkpt lat="43.77957" lon="5.99609">
        <ele>470.357</ele>
        <time>2022-05-09T08:51:28Z</time>
      </trkpt>
      <trkpt lat="43.78001" lon="5.99941">
        <ele>483.824</ele>
        <time>2022-05-09T08:51:53Z</time>
      </trkpt>
      <trkpt lat="43.77931" lon="6.00092">
        <ele>492.439</ele>
        <time>2022-05-09T08:52:08Z</time>
      </trkpt>
      <trkpt lat="43.77811" lon="6.00116">
        <ele>502.039</ele>
        <time>2022-05-09T08:52:18Z</time>
      </trkpt>
      <trkpt lat="43.77865" lon="6.00296">
        <ele>510.217</ele>
        <time>2022-05-09T08:52:23Z</time>
      </trkpt>
      <trkpt lat="43.77782" lon="6.00469">
        <ele>520.693</ele>
        <time>2022-05-09T08:52:38Z</time>
      </trkpt>
      <trkpt lat="43.77626" lon="6.00466">
        <ele>529.765</ele>
        <time>2022-05-09T08:52:48Z</time>
      </trkpt>
      <trkpt lat="43.77317" lon="6.00776">
        <ele>517.321</ele>
        <time>2022-05-09T08:53:08Z</time>
      </trkpt>
      <trkpt lat="43.77319" lon="6.00513">
        <ele>531.208</ele>
        <time>2022-05-09T08:53:33Z</time>
      </trkpt>
      <trkpt lat="43.77148" lon="6.00905">
        <ele>552.056</ele>
        <time>2022-05-09T08:53:58Z</time>
      </trkpt>
      <trkpt lat="43.76781" lon="6.00946">
        <ele>560.238</ele>
        <time>2022-05-09T08:54:13Z</time>
      </trkpt>
      <trkpt lat="43.76991" lon="6.00969">
        <ele>563.724</ele>
        <time>2022-05-09T08:54:18Z</time>
      </trkpt>
      <trkpt lat="43.76781" lon="6.00946">
        <ele>560.298</ele>
        <time>2022-05-09T08:54:23Z</time>
      </trkpt>
      <trkpt lat="43.76783" lon="6.00303">
        <ele>552.745</ele>
        <time>2022-05-09T08:54:38Z</time>
      </trkpt>
      <trkpt lat="43.76641" lon="5.99976">
        <ele>552.76</ele>
        <time>2022-05-09T08:54:43Z</time>
      </trkpt>
      <trkpt lat="43.76602" lon="5.99601">
        <ele>552.72</ele>
        <time>2022-05-09T08:54:48Z</time>
      </trkpt>
      <trkpt lat="43.76719" lon="5.99033">
        <ele>542.528</ele>
        <time>2022-05-09T08:54:58Z</time>
      </trkpt>
      <trkpt lat="43.76814" lon="5.99056">
        <ele>542.553</ele>
        <time>2022-05-09T08:55:03Z</time>
      </trkpt>
      <trkpt lat="43.76922" lon="5.98958">
        <ele>542.504</ele>
        <time>2022-05-09T08:55:08Z</time>
      </trkpt>
      <trkpt lat="43.76938" lon="5.98427">
        <ele>538.314</ele>
        <time>2022-05-09T08:55:18Z</time>
      </trkpt>
      <trkpt lat="43.76844" lon="5.98096">
        <ele>538.308</ele>
        <time>2022-05-09T08:55:38Z</time>
      </trkpt>
      <trkpt lat="43.76904" lon="5.97998">
        <ele>538.342</ele>
        <time>2022-05-09T08:55:43Z</time>
      </trkpt>
      <trkpt lat="43.76871" lon="5.97785">
        <ele>536.174</ele>
        <time>2022-05-09T08:55:48Z</time>
      </trkpt>
      <trkpt lat="43.7679" lon="5.97719">
        <ele>534.99</ele>
        <time>2022-05-09T08:55:53Z</time>
      </trkpt>
      <trkpt lat="43.76819" lon="5.97485">
        <ele>533.994</ele>
        <time>2022-05-09T08:56:03Z</time>
      </trkpt>
      <trkpt lat="43.76718" lon="5.97116">
        <ele>531.131</ele>
        <time>2022-05-09T08:56:18Z</time>
      </trkpt>
      <trkpt lat="43.76724" lon="5.96877">
        <ele>525.656</ele>
        <time>2022-05-09T08:56:23Z</time>
      </trkpt>
      <trkpt lat="43.7663" lon="5.96721">
        <ele>520.466</ele>
        <time>2022-05-09T08:56:33Z</time>
      </trkpt>
      <trkpt lat="43.76639" lon="5.96435">
        <ele>508.094</ele>
        <time>2022-05-09T08:56:48Z</time>
      </trkpt>
      <trkpt lat="43.76448" lon="5.96522">
        <ele>483.583</ele>
        <time>2022-05-09T08:57:08Z</time>
      </trkpt>
      <trkpt lat="43.76408" lon="5.96234">
        <ele>480.725</ele>
        <time>2022-05-09T08:57:23Z</time>
      </trkpt>
      <trkpt lat="43.76329" lon="5.96093">
        <ele>473.117</ele>
        <time>2022-05-09T08:57:28Z</time>
      </trkpt>
      <trkpt lat="43.76354" lon="5.95872">
        <ele>464.808</ele>
        <time>2022-05-09T08:57:38Z</time>
      </trkpt>
      <trkpt lat="43.76225" lon="5.9568">
        <ele>464.415</ele>
        <time>2022-05-09T08:57:43Z</time>
      </trkpt>
      <trkpt lat="43.76161" lon="5.9499">
        <ele>482.727</ele>
        <time>2022-05-09T08:57:58Z</time>
      </trkpt>
      <trkpt lat="43.75935" lon="5.94267">
        <ele>487.983</ele>
        <time>2022-05-09T08:58:23Z</time>
      </trkpt>
      <trkpt lat="43.75902" lon="5.9442">
        <ele>473.457</ele>
        <time>2022-05-09T08:58:28Z</time>
      </trkpt>
      <trkpt lat="43.75759" lon="5.94485">
        <ele>441.964</ele>
        <time>2022-05-09T08:58:38Z</time>
      </trkpt>
      <trkpt lat="43.75769" lon="5.94368">
        <ele>430.989</ele>
        <time>2022-05-09T08:58:43Z</time>
      </trkpt>
      <trkpt lat="43.75665" lon="5.94353">
        <ele>429.889</ele>
        <time>2022-05-09T08:59:03Z</time>
      </trkpt>
      <trkpt lat="43.75571" lon="5.94121">
        <ele>440.257</ele>
        <time>2022-05-09T08:59:08Z</time>
      </trkpt>
      <trkpt lat="43.75456" lon="5.94106">
        <ele>443.297</ele>
        <time>2022-05-09T08:59:18Z</time>
      </trkpt>
      <trkpt lat="43.75338" lon="5.93882">
        <ele>445.323</ele>
        <time>2022-05-09T08:59:38Z</time>
      </trkpt>
      <trkpt lat="43.75495" lon="5.93784">
        <ele>445.225</ele>
        <time>2022-05-09T08:59:53Z</time>
      </trkpt>
      <trkpt lat="43.75507" lon="5.93685">
        <ele>445.708</ele>
        <time>2022-05-09T08:59:58Z</time>
      </trkpt>
      <trkpt lat="43.75422" lon="5.93537">
        <ele>444.676</ele>
        <time>2022-05-09T09:00:03Z</time>
      </trkpt>
      <trkpt lat="43.75459" lon="5.93334">
        <ele>439.078</ele>
        <time>2022-05-09T09:00:18Z</time>
      </trkpt>
      <trkpt lat="43.75323" lon="5.93245">
        <ele>421.764</ele>
        <time>2022-05-09T09:00:23Z</time>
      </trkpt>
      <trkpt lat="43.75168" lon="5.93003">
        <ele>397.188</ele>
        <time>2022-05-09T09:00:43Z</time>
      </trkpt>
      <trkpt lat="43.75176" lon="5.92798">
        <ele>387.185</ele>
        <time>2022-05-09T09:00:58Z</time>
      </trkpt>
      <trkpt lat="43.75449" lon="5.92692">
        <ele>379.01</ele>
        <time>2022-05-09T09:01:13Z</time>
      </trkpt>
      <trkpt lat="43.75467" lon="5.92824">
        <ele>372.59</ele>
        <time>2022-05-09T09:01:28Z</time>
      </trkpt>
      <trkpt lat="43.75734" lon="5.92671">
        <ele>342.018</ele>
        <time>2022-05-09T09:01:53Z</time>
      </trkpt>
      <trkpt lat="43.75568" lon="5.92664">
        <ele>327.412</ele>
        <time>2022-05-09T09:02:08Z</time>
      </trkpt>
      <trkpt lat="43.75711" lon="5.9258">
        <ele>319.732</ele>
        <time>2022-05-09T09:02:23Z</time>
      </trkpt>
      <trkpt lat="43.75786" lon="5.92294">
        <ele>318.305</ele>
        <time>2022-05-09T09:02:33Z</time>
      </trkpt>
      <trkpt lat="43.75593" lon="5.91747">
        <ele>324.108</ele>
        <time>2022-05-09T09:02:48Z</time>
      </trkpt>
      <trkpt lat="43.75681" lon="5.91426">
        <ele>326.088</ele>
        <time>2022-05-09T09:03:03Z</time>
      </trkpt>
      <trkpt lat="43.75625" lon="5.91794">
        <ele>328.67</ele>
        <time>2022-05-09T09:03:13Z</time>
      </trkpt>
      <trkpt lat="43.75753" lon="5.92012">
        <ele>343.976</ele>
        <time>2022-05-09T09:03:18Z</time>
      </trkpt>
      <trkpt lat="43.75872" lon="5.9199">
        <ele>350.94</ele>
        <time>2022-05-09T09:03:33Z</time>
      </trkpt>
      <trkpt lat="43.75967" lon="5.92072">
        <ele>350.517</ele>
        <time>2022-05-09T09:03:38Z</time>
      </trkpt>
      <trkpt lat="43.76048" lon="5.92317">
        <ele>350.852</ele>
        <time>2022-05-09T09:03:48Z</time>
      </trkpt>
      <trkpt lat="43.76109" lon="5.92346">
        <ele>353.992</ele>
        <time>2022-05-09T09:03:53Z</time>
      </trkpt>
      <trkpt lat="43.76078" lon="5.92414">
        <ele>358.91</ele>
        <time>2022-05-09T09:04:03Z</time>
      </trkpt>
      <trkpt lat="43.76167" lon="5.92571">
        <ele>373.515</ele>
        <time>2022-05-09T09:04:08Z</time>
      </trkpt>
      <trkpt lat="43.76279" lon="5.92583">
        <ele>383.465</ele>
        <time>2022-05-09T09:04:23Z</time>
      </trkpt>
      <trkpt lat="43.76233" lon="5.92224">
        <ele>406.611</ele>
        <time>2022-05-09T09:04:58Z</time>
      </trkpt>
      <trkpt lat="43.76143" lon="5.92019">
        <ele>415.508</ele>
        <time>2022-05-09T09:05:08Z</time>
      </trkpt>
      <trkpt lat="43.76413" lon="5.92069">
        <ele>465.628</ele>
        <time>2022-05-09T09:05:23Z</time>
      </trkpt>
      <trkpt lat="43.76564" lon="5.92257">
        <ele>478.88</ele>
        <time>2022-05-09T09:05:33Z</time>
      </trkpt>
      <trkpt lat="43.7678" lon="5.92283">
        <ele>493.256</ele>
        <time>2022-05-09T09:05:43Z</time>
      </trkpt>
      <trkpt lat="43.76806" lon="5.92367">
        <ele>498.91</ele>
        <time>2022-05-09T09:05:48Z</time>
      </trkpt>
      <trkpt lat="43.77143" lon="5.92524">
        <ele>505.377</ele>
        <time>2022-05-09T09:06:03Z</time>
      </trkpt>
      <trkpt lat="43.77239" lon="5.92732">
        <ele>514.632</ele>
        <time>2022-05-09T09:06:08Z</time>
      </trkpt>
      <trkpt lat="43.77486" lon="5.92548">
        <ele>515.432</ele>
        <time>2022-05-09T09:06:28Z</time>
      </trkpt>
      <trkpt lat="43.77154" lon="5.91974">
        <ele>508.27</ele>
        <time>2022-05-09T09:06:38Z</time>
      </trkpt>
      <trkpt lat="43.76944" lon="5.91847">
        <ele>507.251</ele>
        <time>2022-05-09T09:06:53Z</time>
      </trkpt>
      <trkpt lat="43.76895" lon="5.9145">
        <ele>501.801</ele>
        <time>2022-05-09T09:07:13Z</time>
      </trkpt>
      <trkpt lat="43.76625" lon="5.91206">
        <ele>492.211</ele>
        <time>2022-05-09T09:07:33Z</time>
      </trkpt>
      <trkpt lat="43.76596" lon="5.90669">
        <ele>456.208</ele>
        <time>2022-05-09T09:07:43Z</time>
      </trkpt>
      <trkpt lat="43.76294" lon="5.90431">
        <ele>424.272</ele>
        <time>2022-05-09T09:07:48Z</time>
      </trkpt>
      <trkpt lat="43.76136" lon="5.90171">
        <ele>374.734</ele>
        <time>2022-05-09T09:07:58Z</time>
      </trkpt>
      <trkpt lat="43.76427" lon="5.89935">
        <ele>374.71</ele>
        <time>2022-05-09T09:08:18Z</time>
      </trkpt>
      <trkpt lat="43.76522" lon="5.89934">
        <ele>367.224</ele>
        <time>2022-05-09T09:08:28Z</time>
      </trkpt>
      <trkpt lat="43.76659" lon="5.89745">
        <ele>353.291</ele>
        <time>2022-05-09T09:08:33Z</time>
      </trkpt>
      <trkpt lat="43.76719" lon="5.89818">
        <ele>351.466</ele>
        <time>2022-05-09T09:08:38Z</time>
      </trkpt>
      <trkpt lat="43.76847" lon="5.89643">
        <ele>344.056</ele>
        <time>2022-05-09T09:08:58Z</time>
      </trkpt>
      <trkpt lat="43.77265" lon="5.90193">
        <ele>360.084</ele>
        <time>2022-05-09T09:09:23Z</time>
      </trkpt>
      <trkpt lat="43.77382" lon="5.90183">
        <ele>364.113</ele>
        <time>2022-05-09T09:09:28Z</time>
      </trkpt>
      <trkpt lat="43.77348" lon="5.90039">
        <ele>382.243</ele>
        <time>2022-05-09T09:09:33Z</time>
      </trkpt>
      <trkpt lat="43.77409" lon="5.89938">
        <ele>403.107</ele>
        <time>2022-05-09T09:09:43Z</time>
      </trkpt>
      <trkpt lat="43.77774" lon="5.89942">
        <ele>473.408</ele>
        <time>2022-05-09T09:10:08Z</time>
      </trkpt>
      <trkpt lat="43.77833" lon="5.89808">
        <ele>479.698</ele>
        <time>2022-05-09T09:10:13Z</time>
      </trkpt>
      <trkpt lat="43.78257" lon="5.89907">
        <ele>497.68</ele>
        <time>2022-05-09T09:10:38Z</time>
      </trkpt>
      <trkpt lat="43.78619" lon="5.90398">
        <ele>507.976</ele>
        <time>2022-05-09T09:11:03Z</time>
      </trkpt>
      <trkpt lat="43.78914" lon="5.90168">
        <ele>508.59</ele>
        <time>2022-05-09T09:11:13Z</time>
      </trkpt>
      <trkpt lat="43.78981" lon="5.8993">
        <ele>513.467</ele>
        <time>2022-05-09T09:11:33Z</time>
      </trkpt>
      <trkpt lat="43.78867" lon="5.89654">
        <ele>508.682</ele>
        <time>2022-05-09T09:11:48Z</time>
      </trkpt>
      <trkpt lat="43.78594" lon="5.89396">
        <ele>509.032</ele>
        <time>2022-05-09T09:12:08Z</time>
      </trkpt>
      <trkpt lat="43.7841" lon="5.8908">
        <ele>502.86</ele>
        <time>2022-05-09T09:12:23Z</time>
      </trkpt>
      <trkpt lat="43.78393" lon="5.88351">
        <ele>508.319</ele>
        <time>2022-05-09T09:12:43Z</time>
      </trkpt>
      <trkpt lat="43.78162" lon="5.87864">
        <ele>499.509</ele>
        <time>2022-05-09T09:12:53Z</time>
      </trkpt>
      <trkpt lat="43.77899" lon="5.8759">
        <ele>497.419</ele>
        <time>2022-05-09T09:13:08Z</time>
      </trkpt>
      <trkpt lat="43.77702" lon="5.87644">
        <ele>497.008</ele>
        <time>2022-05-09T09:13:23Z</time>
      </trkpt>
      <trkpt lat="43.77658" lon="5.87367">
        <ele>497.368</ele>
        <time>2022-05-09T09:13:33Z</time>
      </trkpt>
      <trkpt lat="43.77472" lon="5.87469">
        <ele>494.57</ele>
        <time>2022-05-09T09:13:43Z</time>
      </trkpt>
      <trkpt lat="43.77326" lon="5.87287">
        <ele>478.366</ele>
        <time>2022-05-09T09:13:53Z</time>
      </trkpt>
      <trkpt lat="43.77363" lon="5.87249">
        <ele>471.29</ele>
        <time>2022-05-09T09:14:03Z</time>
      </trkpt>
      <trkpt lat="43.77307" lon="5.87">
        <ele>450.137</ele>
        <time>2022-05-09T09:14:18Z</time>
      </trkpt>
      <trkpt lat="43.772" lon="5.87023">
        <ele>441.232</ele>
        <time>2022-05-09T09:14:28Z</time>
      </trkpt>
      <trkpt lat="43.76971" lon="5.86798">
        <ele>416.652</ele>
        <time>2022-05-09T09:14:48Z</time>
      </trkpt>
      <trkpt lat="43.76736" lon="5.86902">
        <ele>401.17</ele>
        <time>2022-05-09T09:15:03Z</time>
      </trkpt>
      <trkpt lat="43.76532" lon="5.86803">
        <ele>385.594</ele>
        <time>2022-05-09T09:15:23Z</time>
      </trkpt>
      <trkpt lat="43.76268" lon="5.86423">
        <ele>361.357</ele>
        <time>2022-05-09T09:15:43Z</time>
      </trkpt>
      <trkpt lat="43.75907" lon="5.86175">
        <ele>334.922</ele>
        <time>2022-05-09T09:16:03Z</time>
      </trkpt>
      <trkpt lat="43.75952" lon="5.86056">
        <ele>349.208</ele>
        <time>2022-05-09T09:16:08Z</time>
      </trkpt>
      <trkpt lat="43.75924" lon="5.85777">
        <ele>395.076</ele>
        <time>2022-05-09T09:16:13Z</time>
      </trkpt>
      <trkpt lat="43.76106" lon="5.85459">
        <ele>441.218</ele>
        <time>2022-05-09T09:16:28Z</time>
      </trkpt>
      <trkpt lat="43.76319" lon="5.85337">
        <ele>472.234</ele>
        <time>2022-05-09T09:16:38Z</time>
      </trkpt>
      <trkpt lat="43.76689" lon="5.8558">
        <ele>471.738</ele>
        <time>2022-05-09T09:16:58Z</time>
      </trkpt>
      <trkpt lat="43.76695" lon="5.85967">
        <ele>476.895</ele>
        <time>2022-05-09T09:17:18Z</time>
      </trkpt>
      <trkpt lat="43.76807" lon="5.86187">
        <ele>482.92</ele>
        <time>2022-05-09T09:17:23Z</time>
      </trkpt>
      <trkpt lat="43.77157" lon="5.86323">
        <ele>484.77</ele>
        <time>2022-05-09T09:17:38Z</time>
      </trkpt>
      <trkpt lat="43.77351" lon="5.86698">
        <ele>487.218</ele>
        <time>2022-05-09T09:17:48Z</time>
      </trkpt>
      <trkpt lat="43.77528" lon="5.86765">
        <ele>490.789</ele>
        <time>2022-05-09T09:17:58Z</time>
      </trkpt>
      <trkpt lat="43.77746" lon="5.8734">
        <ele>497.506</ele>
        <time>2022-05-09T09:18:13Z</time>
      </trkpt>
      <trkpt lat="43.78026" lon="5.86974">
        <ele>495.626</ele>
        <time>2022-05-09T09:18:33Z</time>
      </trkpt>
      <trkpt lat="43.77971" lon="5.87021">
        <ele>496.508</ele>
        <time>2022-05-09T09:18:38Z</time>
      </trkpt>
      <trkpt lat="43.78244" lon="5.86438">
        <ele>463.355</ele>
        <time>2022-05-09T09:18:53Z</time>
      </trkpt>
      <trkpt lat="43.7858" lon="5.86077">
        <ele>441.527</ele>
        <time>2022-05-09T09:19:08Z</time>
      </trkpt>
      <trkpt lat="43.79194" lon="5.84872">
        <ele>344.713</ele>
        <time>2022-05-09T09:19:53Z</time>
      </trkpt>
      <trkpt lat="43.7924" lon="5.84924">
        <ele>345.917</ele>
        <time>2022-05-09T09:20:03Z</time>
      </trkpt>
      <trkpt lat="43.79332" lon="5.84507">
        <ele>366.454</ele>
        <time>2022-05-09T09:20:23Z</time>
      </trkpt>
      <trkpt lat="43.79568" lon="5.84348">
        <ele>366.479</ele>
        <time>2022-05-09T09:20:28Z</time>
      </trkpt>
      <trkpt lat="43.7983" lon="5.83904">
        <ele>366.429</ele>
        <time>2022-05-09T09:20:48Z</time>
      </trkpt>
      <trkpt lat="43.79814" lon="5.83973">
        <ele>366.497</ele>
        <time>2022-05-09T09:20:53Z</time>
      </trkpt>
      <trkpt lat="43.80043" lon="5.83323">
        <ele>297.033</ele>
        <time>2022-05-09T09:21:08Z</time>
      </trkpt>
      <trkpt lat="43.79834" lon="5.83104">
        <ele>294.623</ele>
        <time>2022-05-09T09:21:23Z</time>
      </trkpt>
      <trkpt lat="43.79645" lon="5.83054">
        <ele>293.715</ele>
        <time>2022-05-09T09:21:28Z</time>
      </trkpt>
      <trkpt lat="43.78928" lon="5.82587">
        <ele>290.708</ele>
        <time>2022-05-09T09:21:38Z</time>
      </trkpt>
      <trkpt lat="43.78553" lon="5.82197">
        <ele>289.86</ele>
        <time>2022-05-09T09:21:48Z</time>
      </trkpt>
      <trkpt lat="43.78361" lon="5.82117">
        <ele>288.852</ele>
        <time>2022-05-09T09:21:58Z</time>
      </trkpt>
      <trkpt lat="43.78167" lon="5.82138">
        <ele>288.548</ele>
        <time>2022-05-09T09:22:03Z</time>
      </trkpt>
      <trkpt lat="43.78002" lon="5.82043">
        <ele>288.312</ele>
        <time>2022-05-09T09:22:13Z</time>
      </trkpt>
      <trkpt lat="43.77759" lon="5.81734">
        <ele>303.259</ele>
        <time>2022-05-09T09:22:23Z</time>
      </trkpt>
      <trkpt lat="43.7577" lon="5.80605">
        <ele>297.784</ele>
        <time>2022-05-09T09:22:43Z</time>
      </trkpt>
      <trkpt lat="43.74532" lon="5.80272">
        <ele>303.254</ele>
        <time>2022-05-09T09:23:03Z</time>
      </trkpt>
      <trkpt lat="43.74129" lon="5.79987">
        <ele>303.812</ele>
        <time>2022-05-09T09:23:08Z</time>
      </trkpt>
      <trkpt lat="43.73906" lon="5.80117">
        <ele>303.474</ele>
        <time>2022-05-09T09:23:23Z</time>
      </trkpt>
      <trkpt lat="43.73716" lon="5.80356">
        <ele>291.156</ele>
        <time>2022-05-09T09:23:28Z</time>
      </trkpt>
      <trkpt lat="43.73444" lon="5.80499">
        <ele>281.321</ele>
        <time>2022-05-09T09:23:38Z</time>
      </trkpt>
      <trkpt lat="43.73316" lon="5.80959">
        <ele>280.908</ele>
        <time>2022-05-09T09:23:48Z</time>
      </trkpt>
      <trkpt lat="43.73048" lon="5.8122">
        <ele>277.884</ele>
        <time>2022-05-09T09:24:03Z</time>
      </trkpt>
      <trkpt lat="43.73053" lon="5.81286">
        <ele>281.026</ele>
        <time>2022-05-09T09:24:13Z</time>
      </trkpt>
      <trkpt lat="43.73054" lon="5.81216">
        <ele>278.172</ele>
        <time>2022-05-09T09:24:28Z</time>
      </trkpt>
      <trkpt lat="43.72748" lon="5.813">
        <ele>280.326</ele>
        <time>2022-05-09T09:24:48Z</time>
        <extensions>
          <visugpx:TrkExtension xmlns:visugpx="https://www.visugpx.com/editgpx/">
            <visugpx:node>1</visugpx:node>
            </visugpx:TrkExtension>
        </extensions>
      </trkpt>
    </trkseg>
  </trk>
</gpx>